< Cyclone 198205 1982 Season Cyclone 198207 >
Cyclone 198206 (BRUNO)
General InformationTrack Information on Google MapsDetailed Wind InformationList of All Images || ResourceGoogle EarthGE AnimationAtom FeedGeoJSON
Detalied Best Track (Time Zone = UTC)
Year Month Day Hour Lat. Long. Pressure (hPa) Wind (kt) Class Image Chart
1982 1 10 23 -11.1 140.5 1006 20 2 Image --
1982 1 11 23 -10.7 138.9 1004 25 2 Image --
1982 1 12 23 -10.6 137.4 1002 25 2 Image --
1982 1 13 02 -10.6 137.3 1002 25 2 Image --
1982 1 13 05 -10.7 137.2 1000 25 2 Image --
1982 1 13 08 -10.7 137.0 1000 25 2 Image --
1982 1 13 11 -10.8 136.9 1001 25 2 Image --
1982 1 13 14 -10.8 136.7 1000 25 2 Image --
1982 1 13 17 -10.9 136.6 999 30 2 Image --
1982 1 13 20 -10.9 136.3 999 30 2 Image --
1982 1 13 23 -11.0 136.0 999 30 2 Image --
1982 1 14 02 -11.1 135.7 998 30 2 Image --
1982 1 14 05 -11.2 135.4 997 30 2 Image --
1982 1 14 08 -11.4 135.0 997 30 2 Image --
1982 1 14 11 -11.5 134.7 997 30 2 Image --
1982 1 14 14 -11.6 134.4 996 30 2 Image --
1982 1 14 17 -11.8 134.1 993 30 2 Image --
1982 1 14 20 -12.0 133.8 993 30 2 Image --
1982 1 14 23 -12.2 133.4 994 30 2 Image --
1982 1 15 02 -12.4 132.9 996 30 2 Image --
1982 1 15 05 -12.6 132.5 994 30 2 Image --
1982 1 15 08 -12.9 132.0 995 30 2 Image --
1982 1 15 11 -13.1 131.5 995 30 2 Image --
1982 1 15 14 -13.3 131.0 994 30 2 Image --
1982 1 15 17 -13.5 130.4 993 30 2 Image --
1982 1 15 20 -13.7 129.9 992 30 2 Image --
1982 1 15 23 -13.9 129.5 991 35 3 Image --
1982 1 16 01 -14.1 129.2 990 45 3 Image --
1982 1 16 02 -14.2 129.0 990 45 3 Image --
1982 1 16 04 -14.3 128.7 990 45 3 Image --
1982 1 16 05 -14.5 128.4 989 50 4 Image --
1982 1 16 07 -14.7 128.1 989 50 4 Image --
1982 1 16 08 -14.9 127.7 991 45 3 Image --
1982 1 16 10 -15.1 127.4 991 40 3 Image --
1982 1 16 13 -15.6 126.7 993 40 3 Image --
1982 1 16 16 -16.0 126.1 993 40 3 Image --
1982 1 16 19 -16.4 125.6 993 40 3 Image --
1982 1 16 22 -16.7 125.1 994 40 3 Image --
1982 1 17 01 -17.1 124.6 994 40 3 Image --
1982 1 17 04 -17.4 124.1 992 40 3 Image --
1982 1 17 07 -17.6 123.5 992 40 3 Image --
1982 1 17 09 -17.9 123.5 992 30 2 Image --
1982 1 17 12 -18.7 123.7 992 30 2 Image --
1982 1 17 15 -19.3 122.0 993 30 2 Image --
1982 1 17 18 -19.9 121.0 993 30 2 Image --
1982 1 17 21 -20.0 120.1 994 30 2 Image --
1982 1 18 01 -20.4 119.0 995 30 2 Image --
1982 1 18 03 -20.4 118.2 993 30 2 Image --
1982 1 18 06 -20.2 117.3 991 30 2 Image --
1982 1 18 10 -20.2 116.3 989 30 2 Image --
1982 1 18 12 -20.2 116.0 989 30 2 Image --
1982 1 18 16 -20.1 115.5 989 40 3 Image --
1982 1 18 18 -19.5 115.6 989 40 3 Image --
1982 1 18 21 -19.3 115.8 989 45 3 Image --
1982 1 19 00 -19.4 116.3 989 45 3 Image --
1982 1 19 03 -20.2 116.3 987 45 3 Image --
1982 1 19 06 -20.6 115.9 986 45 3 Image --
1982 1 19 09 -20.9 115.7 984 50 4 Image --
1982 1 19 12 -21.1 115.5 982 50 4 Image --
1982 1 19 16 -21.4 115.0 980 50 4 Image --
1982 1 19 18 -21.6 114.5 980 50 4 Image --
1982 1 19 21 -22.1 114.3 980 45 3 Image --
1982 1 20 00 -22.7 114.1 980 30 2 Image --
1982 1 20 06 -24.1 114.0 984 30 2 Image --
1982 1 20 12 -25.4 113.8 988 30 2 Image --
1982 1 20 16 -26.6 113.5 988 25 2 Image --
1982 1 21 00 -28.1 113.7 990 25 2 Image --
1982 1 21 03 -28.7 114.0 990 25 2 Image --
1982 1 21 06 -29.4 114.3 990 25 2 Image --
1982 1 21 09 -30.3 114.8 990 25 2 Image --
1982 1 21 12 -30.6 115.1 991 25 2 Image --
1982 1 21 15 -31.0 115.2 993 25 2 Image --
1982 1 21 18 -31.3 115.3 993 20 2 Image --
1982 1 21 21 -31.7 115.7 995 20 2 Image --
1982 1 22 00 -32.0 115.7 995 20 2 Image --
1982 1 22 03 -32.1 117.0 996 20 2 Image --
1982 1 22 06 -33.1 118.1 997 15 2 Image --
< Cyclone 198205 1982 Season Cyclone 198207 >

Help